Terminal Aerodrome Forecast
Issued by NWS Pocatello, ID

Home | Current Version | Previous Version | Text Only | Print | Product List | Glossary On
Versions: 1 2 3 4 5 6 7 8 9 10 11 12 13 14 15 16 17 18 19 20 21 22 23 24 25 26 27 28 29 30 31 32 33
000
FTUS45 KPIH 031120
TAFIDA
TAF
KIDA 031120Z 0312/0412 21009KT P6SM VCSH SCT030 OVC050
      TEMPO 0313/0317 6SM -SN BKN013 OVC030
     FM031800 22011G20KT P6SM VCSH SCT009 BKN013 OVC025
     FM040300 20010KT P6SM VCSH SCT009 BKN013 OVC025=

USA.gov is the U.S. government's official web portal to all federal, state and local government web resources and services.